createdAt,value
2022-10-05T00:00:46.630Z,7.20
2022-10-05T00:03:14.530Z,7.20
2022-10-05T00:05:42.788Z,7.30
2022-10-05T00:08:16.936Z,7.20
2022-10-05T00:10:46.317Z,7.20
2022-10-05T00:13:15.515Z,7.30
2022-10-05T00:15:43.936Z,7.30
2022-10-05T00:18:16.213Z,7.50
2022-10-05T00:20:45.131Z,7.80
2022-10-05T00:23:20.084Z,7.80
2022-10-05T00:25:48.501Z,8.10
2022-10-05T00:28:19.440Z,8.10
2022-10-05T00:30:47.495Z,8.10
2022-10-05T00:33:15.380Z,8.10
2022-10-05T00:35:43.250Z,8.20
2022-10-05T00:38:11.147Z,8.10
2022-10-05T00:40:53.147Z,8.00
2022-10-05T00:43:41.657Z,7.90
2022-10-05T00:46:16.946Z,7.80
2022-10-05T00:48:53.601Z,7.80
2022-10-05T00:51:26.766Z,7.70
2022-10-05T00:54:18.147Z,7.80
2022-10-05T00:57:07.839Z,7.70
2022-10-05T00:59:47.208Z,7.60
2022-10-05T01:02:19.371Z,7.60
2022-10-05T01:04:52.421Z,7.60
2022-10-05T01:07:31.438Z,7.50
2022-10-05T01:10:07.221Z,7.50
2022-10-05T01:12:42.411Z,7.40
2022-10-05T01:15:14.642Z,7.40
2022-10-05T01:17:47.295Z,7.40
2022-10-05T01:20:32.836Z,7.50
2022-10-05T01:23:24.171Z,7.50
2022-10-05T01:26:06.937Z,7.70
2022-10-05T01:28:39.253Z,7.80
2022-10-05T01:31:13.907Z,8.00
2022-10-05T01:33:47.417Z,8.20
2022-10-05T01:36:24.580Z,8.50
2022-10-05T01:38:58.909Z,8.70
2022-10-05T01:41:34.840Z,8.70
2022-10-05T01:44:09.663Z,8.70
2022-10-05T01:46:40.418Z,8.80
2022-10-05T01:49:23.528Z,9.00
2022-10-05T01:52:02.814Z,9.20
2022-10-05T01:54:41.350Z,9.20
2022-10-05T01:57:19.194Z,9.10
2022-10-05T02:00:02.346Z,9.00
2022-10-05T02:02:32.761Z,9.10
2022-10-05T02:05:06.246Z,9.00
2022-10-05T02:07:37.743Z,8.90
2022-10-05T02:10:14.929Z,8.90
2022-10-05T02:12:45.425Z,9.00
2022-10-05T02:15:19.124Z,9.10
2022-10-05T02:17:50.066Z,9.10
2022-10-05T02:20:24.788Z,9.00
2022-10-05T02:22:55.659Z,9.10
2022-10-05T02:25:29.034Z,9.00
2022-10-05T02:28:03.339Z,9.00
2022-10-05T02:30:38.861Z,9.00
2022-10-05T02:33:11.406Z,9.00
2022-10-05T02:35:39.437Z,9.00
2022-10-05T02:38:13.481Z,9.10
2022-10-05T02:40:51.694Z,9.40
2022-10-05T02:43:27.055Z,9.40
2022-10-05T02:46:02.456Z,9.50
2022-10-05T02:48:39.958Z,9.50
2022-10-05T02:51:16.532Z,9.50
2022-10-05T02:53:55.589Z,9.30
2022-10-05T02:56:29.386Z,9.10
2022-10-05T02:59:05.004Z,8.90
2022-10-05T03:01:42.230Z,8.70
2022-10-05T03:04:21.868Z,8.60
2022-10-05T03:06:59.776Z,8.50
2022-10-05T03:09:32.526Z,8.40
2022-10-05T03:12:09.211Z,8.20
2022-10-05T03:14:46.546Z,8.20
2022-10-05T03:17:19.095Z,8.10
2022-10-05T03:20:12.949Z,8.10
2022-10-05T03:22:50.744Z,8.00
2022-10-05T03:25:42.441Z,7.90
2022-10-05T03:28:16.858Z,7.70
2022-10-05T03:30:53.036Z,7.70
2022-10-05T03:33:31.867Z,7.70
2022-10-05T03:36:07.204Z,7.70
2022-10-05T03:38:42.845Z,7.60
2022-10-05T03:41:17.815Z,7.50
2022-10-05T03:44:07.850Z,7.50
2022-10-05T03:46:50.107Z,7.60
2022-10-05T03:49:28.227Z,7.50
2022-10-05T03:52:02.507Z,7.30
2022-10-05T03:54:36.102Z,7.20
2022-10-05T03:57:10.595Z,7.30
2022-10-05T03:59:43.329Z,7.30
2022-10-05T04:02:20.953Z,7.20
2022-10-05T04:04:55.708Z,7.20
2022-10-05T04:07:32.935Z,7.20
2022-10-05T04:10:04.374Z,7.10
2022-10-05T04:12:36.610Z,7.10
2022-10-05T04:15:09.169Z,7.00
2022-10-05T04:17:43.317Z,6.90
2022-10-05T04:20:20.241Z,6.90
2022-10-05T04:22:54.888Z,6.90
2022-10-05T04:25:26.296Z,6.90
2022-10-05T04:27:59.400Z,6.90
2022-10-05T04:30:27.330Z,6.80
2022-10-05T04:32:57.313Z,6.90
2022-10-05T04:35:46.266Z,6.80
2022-10-05T04:38:28.322Z,6.70
2022-10-05T04:41:12.664Z,6.70
2022-10-05T04:43:55.296Z,6.60
2022-10-05T04:46:38.292Z,6.60
2022-10-05T04:49:31.904Z,6.60
2022-10-05T04:52:07.776Z,6.60
2022-10-05T04:54:47.782Z,6.60
2022-10-05T04:57:22.915Z,6.70
2022-10-05T05:00:09.438Z,6.70
2022-10-05T05:02:53.117Z,6.70
2022-10-05T05:05:35.854Z,6.60
2022-10-05T05:08:17.554Z,6.50
2022-10-05T05:10:54.831Z,6.50
2022-10-05T05:13:45.037Z,6.80
2022-10-05T05:16:21.065Z,6.80
2022-10-05T05:19:04.601Z,6.90
2022-10-05T05:21:43.445Z,6.80
2022-10-05T05:24:20.879Z,6.80
2022-10-05T05:27:10.790Z,6.80
2022-10-05T05:29:43.826Z,6.90
2022-10-05T05:32:21.943Z,7.00
2022-10-05T05:35:02.774Z,7.00
2022-10-05T05:37:36.859Z,7.10
2022-10-05T05:40:14.994Z,7.20
2022-10-05T05:42:53.350Z,7.20
2022-10-05T05:45:31.167Z,7.30
2022-10-05T05:48:00.622Z,7.30
2022-10-05T05:50:41.374Z,7.30
2022-10-05T05:53:15.844Z,7.40
2022-10-05T05:55:49.429Z,7.50
2022-10-05T05:58:23.376Z,7.50
2022-10-05T06:00:58.383Z,7.60
2022-10-05T06:03:29.907Z,7.70
2022-10-05T06:06:01.739Z,7.80
2022-10-05T06:08:36.866Z,7.80
2022-10-05T06:11:11.112Z,7.90
2022-10-05T06:13:41.475Z,8.00
2022-10-05T06:16:20.570Z,8.10
2022-10-05T06:18:53.049Z,8.20
2022-10-05T06:21:26.265Z,8.30
2022-10-05T06:24:00.350Z,8.50
2022-10-05T06:26:44.083Z,8.80
2022-10-05T06:29:17.783Z,9.00
2022-10-05T06:32:03.173Z,9.10
2022-10-05T06:34:51.423Z,9.30
2022-10-05T06:37:29.121Z,9.30
2022-10-05T06:40:12.159Z,9.50
2022-10-05T06:42:51.282Z,9.60
2022-10-05T06:45:26.062Z,9.70
2022-10-05T06:48:05.033Z,9.70
2022-10-05T06:50:38.134Z,9.90
2022-10-05T06:53:29.135Z,10.10
2022-10-05T06:56:04.545Z,10.30
2022-10-05T06:58:46.585Z,10.40
2022-10-05T07:01:23.813Z,10.50
2022-10-05T07:04:07.674Z,10.80
2022-10-05T07:06:39.318Z,11.20
2022-10-05T07:09:22.191Z,11.40
2022-10-05T07:12:05.137Z,11.80
2022-10-05T07:14:47.145Z,12.30
2022-10-05T07:17:29.420Z,12.70
2022-10-05T07:20:04.841Z,12.90
2022-10-05T07:23:02.057Z,13.20
2022-10-05T07:25:36.107Z,13.60
2022-10-05T07:28:08.811Z,13.90
2022-10-05T07:30:46.081Z,14.20
2022-10-05T07:33:21.405Z,14.40
2022-10-05T07:36:14.104Z,14.40
2022-10-05T07:38:47.442Z,14.30
2022-10-05T07:41:20.860Z,14.20
2022-10-05T07:44:02.482Z,14.40
2022-10-05T07:46:45.525Z,14.70
2022-10-05T07:49:22.656Z,14.80
2022-10-05T07:51:54.603Z,15.30
2022-10-05T07:54:26.225Z,14.90
2022-10-05T07:57:03.229Z,15.00
2022-10-05T07:59:37.255Z,14.90
2022-10-05T08:02:15.972Z,15.30
2022-10-05T08:04:53.439Z,15.40
2022-10-05T08:07:21.880Z,15.50
2022-10-05T08:17:26.973Z,15.50
2022-10-05T08:20:02.119Z,15.20
2022-10-05T08:22:36.579Z,15.70
2022-10-05T08:25:11.151Z,16.10
2022-10-05T08:27:48.521Z,16.20
2022-10-05T08:30:18.330Z,16.10
2022-10-05T08:56:31.515Z,17.50
2022-10-05T08:59:29.605Z,17.50
2022-10-05T09:02:20.454Z,17.60
2022-10-05T09:05:19.582Z,17.60
2022-10-05T09:08:15.352Z,17.60
2022-10-05T09:11:02.454Z,17.30
2022-10-05T09:13:54.166Z,17.50
2022-10-05T09:16:59.089Z,17.60
2022-10-05T09:19:53.424Z,17.40
2022-10-05T09:22:57.968Z,17.80
2022-10-05T09:25:42.991Z,17.70
2022-10-05T09:28:25.804Z,17.60
2022-10-05T09:31:03.754Z,17.00
2022-10-05T09:34:09.182Z,17.00
2022-10-05T09:37:27.174Z,17.40
2022-10-05T09:40:28.578Z,18.10
2022-10-05T09:43:18.837Z,18.70
2022-10-05T09:46:13.883Z,19.40
2022-10-05T09:49:01.732Z,20.10
2022-10-05T09:52:06.120Z,20.40
2022-10-05T09:55:23.970Z,20.10
2022-10-05T09:58:31.253Z,19.60
2022-10-05T10:01:29.060Z,19.60
2022-10-05T10:04:15.319Z,19.40
2022-10-05T10:07:11.784Z,19.80
2022-10-05T10:09:52.486Z,19.70
2022-10-05T10:12:37.065Z,19.80
2022-10-05T10:15:38.367Z,19.90
2022-10-05T10:18:29.328Z,19.90
2022-10-05T10:21:21.897Z,19.40
2022-10-05T10:24:03.552Z,19.00
2022-10-05T10:26:59.270Z,18.70
2022-10-05T10:30:03.723Z,19.10
2022-10-05T10:33:11.724Z,19.10
2022-10-05T10:35:43.087Z,19.30
2022-10-05T10:38:52.373Z,19.30
2022-10-05T10:41:49.794Z,19.60
2022-10-05T10:44:53.439Z,20.00
2022-10-05T10:47:40.945Z,20.80
2022-10-05T10:50:43.966Z,21.40
2022-10-05T10:53:48.858Z,22.40
2022-10-05T10:56:30.609Z,23.10
2022-10-05T10:59:27.855Z,23.50
2022-10-05T11:02:16.613Z,23.10
2022-10-05T11:05:13.006Z,23.20
2022-10-05T11:08:08.504Z,23.40
2022-10-05T11:11:12.137Z,23.90
2022-10-05T11:14:10.325Z,24.10
2022-10-05T11:17:25.160Z,23.30
2022-10-05T11:20:34.442Z,22.70
2022-10-05T11:23:23.174Z,24.00
2022-10-05T11:26:17.978Z,24.20
2022-10-05T11:29:06.252Z,23.70
2022-10-05T11:31:54.101Z,22.30
2022-10-05T11:34:39.814Z,22.10
2022-10-05T11:37:44.553Z,22.50
2022-10-05T11:40:33.226Z,23.80
2022-10-05T11:43:36.753Z,24.10
2022-10-05T11:46:13.731Z,23.50
2022-10-05T11:49:07.846Z,23.70
2022-10-05T11:52:03.069Z,23.70
2022-10-05T11:55:10.991Z,24.70
2022-10-05T11:57:48.812Z,23.10
2022-10-05T12:00:19.501Z,22.40
2022-10-05T12:03:04.560Z,23.10
2022-10-05T12:05:39.136Z,22.90
2022-10-05T12:08:25.138Z,23.40
2022-10-05T12:11:03.764Z,23.00
2022-10-05T12:13:41.345Z,23.80
2022-10-05T12:16:15.452Z,24.40
2022-10-05T12:18:51.022Z,25.30
2022-10-05T12:21:27.564Z,24.90
2022-10-05T12:27:21.665Z,25.30
2022-10-05T12:29:56.849Z,23.10
2022-10-05T12:32:30.329Z,22.60
2022-10-05T12:35:05.849Z,22.60
2022-10-05T12:37:46.409Z,22.50
2022-10-05T12:40:27.687Z,20.60
2022-10-05T12:43:05.790Z,21.50
2022-10-05T12:45:47.568Z,21.80
2022-10-05T12:48:28.476Z,20.70
2022-10-05T12:51:01.539Z,20.90
2022-10-05T12:53:41.715Z,21.30
2022-10-05T12:56:16.055Z,21.30
2022-10-05T12:58:56.545Z,20.80
2022-10-05T13:01:35.000Z,20.80
2022-10-05T13:04:24.690Z,20.80
2022-10-05T13:07:06.638Z,21.10
2022-10-05T13:09:44.323Z,20.50
2022-10-05T13:12:21.332Z,20.60
2022-10-05T13:14:59.933Z,20.30
2022-10-05T13:17:39.589Z,20.90
2022-10-05T13:20:14.723Z,20.80
2022-10-05T13:22:47.578Z,20.10
2022-10-05T13:25:26.611Z,20.50
2022-10-05T13:28:17.101Z,21.00
2022-10-05T13:30:56.287Z,20.50
2022-10-05T13:33:32.721Z,19.70
2022-10-05T13:36:08.465Z,19.70
2022-10-05T13:38:52.786Z,19.40
2022-10-05T13:41:29.369Z,20.00
2022-10-05T13:44:11.852Z,20.80
2022-10-05T13:46:47.438Z,20.20
2022-10-05T13:49:26.544Z,19.90
2022-10-05T13:52:01.168Z,19.60
2022-10-05T13:54:38.749Z,19.30
2022-10-05T13:57:21.083Z,19.50
2022-10-05T13:59:55.049Z,19.60
2022-10-05T14:02:28.270Z,19.20
2022-10-05T14:05:00.650Z,19.70
2022-10-05T14:07:34.396Z,20.00
2022-10-05T14:10:08.264Z,20.10
2022-10-05T14:12:41.205Z,20.50
2022-10-05T14:15:22.291Z,20.50
2022-10-05T14:17:51.198Z,19.70
2022-10-05T14:20:23.303Z,19.70
2022-10-05T14:22:57.170Z,19.40
2022-10-05T14:25:26.704Z,19.70
2022-10-05T14:28:00.783Z,19.10
2022-10-05T14:30:30.306Z,19.50
2022-10-05T14:33:08.625Z,19.60
2022-10-05T14:35:48.966Z,19.00
2022-10-05T14:38:22.571Z,18.90
2022-10-05T14:41:21.267Z,19.30
2022-10-05T14:43:55.932Z,19.50
2022-10-05T14:46:29.554Z,19.40
2022-10-05T14:49:22.093Z,19.20
2022-10-05T14:51:51.459Z,19.30
2022-10-05T14:54:33.252Z,18.80
2022-10-05T14:57:19.176Z,18.70
2022-10-05T15:00:01.521Z,18.30
2022-10-05T15:03:05.234Z,18.30
2022-10-05T15:05:39.889Z,18.40
2022-10-05T15:08:18.988Z,18.50
2022-10-05T15:10:53.041Z,18.80
2022-10-05T15:13:25.273Z,18.70
2022-10-05T15:15:55.934Z,18.30
2022-10-05T15:18:37.385Z,18.20
2022-10-05T15:21:26.310Z,18.10
2022-10-05T15:23:58.361Z,17.90
2022-10-05T15:26:36.240Z,18.00
2022-10-05T15:29:17.691Z,17.90
2022-10-05T15:31:55.963Z,17.50
2022-10-05T15:34:32.754Z,17.30
2022-10-05T15:37:16.038Z,17.30
2022-10-05T15:39:50.379Z,17.30
2022-10-05T15:42:23.638Z,17.40
2022-10-05T15:45:05.385Z,17.30
2022-10-05T15:47:47.657Z,17.20
2022-10-05T15:50:22.250Z,17.00
2022-10-05T15:52:55.343Z,16.80
2022-10-05T15:55:43.470Z,16.60
2022-10-05T15:58:31.461Z,16.50
2022-10-05T16:01:08.055Z,16.40
2022-10-05T16:03:46.953Z,16.30
2022-10-05T16:06:42.912Z,16.20
2022-10-05T16:09:28.987Z,16.00
2022-10-05T16:12:10.645Z,16.00
2022-10-05T16:14:54.500Z,15.90
2022-10-05T16:17:36.149Z,15.90
2022-10-05T16:20:23.770Z,15.80
2022-10-05T16:23:03.166Z,15.70
2022-10-05T16:25:43.973Z,15.60
2022-10-05T16:28:21.756Z,15.50
2022-10-05T16:30:59.102Z,15.50
2022-10-05T16:33:44.499Z,15.50
2022-10-05T16:36:22.726Z,15.40
2022-10-05T16:38:57.749Z,15.40
2022-10-05T16:41:32.563Z,15.30
2022-10-05T16:44:11.305Z,15.20
2022-10-05T16:46:46.558Z,15.30
2022-10-05T16:49:30.744Z,15.20
2022-10-05T16:52:00.778Z,15.10
2022-10-05T16:54:32.965Z,15.00
2022-10-05T16:57:07.953Z,14.80
2022-10-05T16:59:59.644Z,14.80
2022-10-05T17:02:42.856Z,14.80
2022-10-05T17:05:27.093Z,14.80
2022-10-05T17:08:09.550Z,14.90
2022-10-05T17:10:49.468Z,14.80
2022-10-05T17:13:24.389Z,15.00
2022-10-05T17:16:06.843Z,15.20
2022-10-05T17:19:04.410Z,15.20
2022-10-05T17:21:38.806Z,15.00
2022-10-05T17:24:25.350Z,15.00
2022-10-05T17:27:02.418Z,14.90
2022-10-05T17:29:47.414Z,14.90
2022-10-05T17:32:36.049Z,14.80
2022-10-05T17:35:18.481Z,14.80
2022-10-05T17:38:14.514Z,14.80
2022-10-05T17:40:58.361Z,14.80
2022-10-05T17:43:27.506Z,14.80
2022-10-05T17:45:58.154Z,14.60
2022-10-05T17:49:08.577Z,14.60
2022-10-05T17:52:22.340Z,14.60
2022-10-05T17:55:26.611Z,14.60
2022-10-05T17:57:58.572Z,14.60
2022-10-05T18:00:43.571Z,14.80
2022-10-05T18:03:35.149Z,14.70
2022-10-05T18:06:34.077Z,14.60
2022-10-05T18:09:33.750Z,14.80
2022-10-05T18:12:39.170Z,14.80
2022-10-05T18:15:46.020Z,14.80
2022-10-05T18:18:58.035Z,14.70
2022-10-05T18:21:37.926Z,14.80
2022-10-05T18:24:18.885Z,14.70
2022-10-05T18:26:59.536Z,14.70
2022-10-05T18:30:05.529Z,14.60
2022-10-05T18:33:00.266Z,14.60
2022-10-05T18:35:37.057Z,14.50
2022-10-05T18:38:16.604Z,14.60
2022-10-05T18:40:55.599Z,14.50
2022-10-05T18:43:31.562Z,14.40
2022-10-05T18:46:19.484Z,14.40
2022-10-05T18:48:58.544Z,14.20
2022-10-05T18:51:34.250Z,14.40
2022-10-05T18:54:12.978Z,14.50
2022-10-05T18:56:46.533Z,14.40
2022-10-05T18:59:39.872Z,14.20
2022-10-05T19:02:23.160Z,14.50
2022-10-05T19:05:09.183Z,14.40
2022-10-05T19:07:59.999Z,14.40
2022-10-05T19:10:35.492Z,14.40
2022-10-05T19:13:17.002Z,14.50
2022-10-05T19:15:54.434Z,14.50
2022-10-05T19:18:35.397Z,14.40
2022-10-05T19:21:12.559Z,14.30
2022-10-05T19:23:57.840Z,14.40
2022-10-05T19:26:46.871Z,14.50
2022-10-05T19:29:27.102Z,14.60
2022-10-05T19:32:00.895Z,14.40
2022-10-05T19:34:42.978Z,14.30
2022-10-05T19:37:16.399Z,14.30
2022-10-05T19:39:54.644Z,14.30
2022-10-05T19:42:46.106Z,14.20
2022-10-05T19:45:22.654Z,14.20
2022-10-05T19:48:05.800Z,14.40
2022-10-05T19:50:37.731Z,14.30
2022-10-05T19:53:14.005Z,14.30
2022-10-05T19:55:43.700Z,14.00
2022-10-05T19:58:20.967Z,13.90
2022-10-05T20:01:00.029Z,14.00
2022-10-05T20:03:29.662Z,13.80
2022-10-05T20:06:01.143Z,13.60
2022-10-05T20:08:39.249Z,13.50
2022-10-05T20:11:13.158Z,13.30
2022-10-05T20:13:45.715Z,13.30
2022-10-05T20:16:45.364Z,13.30
2022-10-05T20:19:44.392Z,13.40
2022-10-05T20:22:28.805Z,13.20
2022-10-05T20:25:00.057Z,13.10
2022-10-05T20:27:46.862Z,13.10
2022-10-05T20:30:17.115Z,13.00
2022-10-05T20:32:47.645Z,13.10
2022-10-05T20:35:16.383Z,13.00
2022-10-05T20:37:45.803Z,12.90
2022-10-05T20:40:14.786Z,12.80
2022-10-05T20:42:42.640Z,12.80
2022-10-05T20:45:11.944Z,12.70
2022-10-05T20:47:40.424Z,12.60
2022-10-05T20:50:10.325Z,12.60
2022-10-05T20:52:38.423Z,12.60
2022-10-05T20:55:09.852Z,12.60
2022-10-05T20:57:42.083Z,12.60
2022-10-05T21:00:12.469Z,12.60
2022-10-05T21:02:40.847Z,12.50
2022-10-05T21:05:09.768Z,12.40
2022-10-05T21:07:37.720Z,12.40
2022-10-05T21:10:08.353Z,12.50
2022-10-05T21:12:36.292Z,12.50
2022-10-05T21:15:05.096Z,12.50
2022-10-05T21:17:34.645Z,12.40
2022-10-05T21:20:02.574Z,12.40
2022-10-05T21:22:30.510Z,12.30
2022-10-05T21:24:58.450Z,12.30
2022-10-05T21:27:27.621Z,12.60
2022-10-05T21:29:55.486Z,12.60
2022-10-05T21:32:23.361Z,12.70
2022-10-05T21:34:51.302Z,13.10
2022-10-05T21:37:19.849Z,13.20
2022-10-05T21:39:47.944Z,13.20
2022-10-05T21:42:15.862Z,13.40
2022-10-05T21:44:45.104Z,13.50
2022-10-05T21:47:13.057Z,13.80
2022-10-05T21:49:42.111Z,13.80
2022-10-05T21:52:09.963Z,13.70
2022-10-05T21:54:37.849Z,13.90
2022-10-05T21:57:06.623Z,13.90
2022-10-05T21:59:35.676Z,13.80
2022-10-05T22:02:05.061Z,13.80
2022-10-05T22:04:32.977Z,13.90
2022-10-05T22:07:01.189Z,14.10
2022-10-05T22:09:29.059Z,14.10
2022-10-05T22:11:57.342Z,14.20
2022-10-05T22:14:25.230Z,13.90
2022-10-05T22:16:53.458Z,13.70
2022-10-05T22:19:22.720Z,13.70
2022-10-05T22:21:50.600Z,13.70
2022-10-05T22:24:18.484Z,13.60
2022-10-05T22:26:51.370Z,13.50
2022-10-05T22:29:19.668Z,13.40
2022-10-05T22:31:48.687Z,13.30
2022-10-05T22:34:17.861Z,13.20
2022-10-05T22:36:47.436Z,13.00
2022-10-05T22:39:15.961Z,12.90
2022-10-05T22:41:43.870Z,12.80
2022-10-05T22:44:11.851Z,12.70
2022-10-05T22:46:39.762Z,12.60
2022-10-05T22:49:07.760Z,12.60
2022-10-05T22:51:35.737Z,12.60
2022-10-05T22:54:05.221Z,12.40
2022-10-05T22:56:33.141Z,12.40
2022-10-05T22:59:01.010Z,12.60
2022-10-05T23:01:28.937Z,12.50
2022-10-05T23:03:57.280Z,12.30
2022-10-05T23:06:26.478Z,12.20
2022-10-05T23:08:55.246Z,12.00
2022-10-05T23:11:27.577Z,11.90
2022-10-05T23:13:57.394Z,11.90
2022-10-05T23:16:27.996Z,11.80
2022-10-05T23:18:56.851Z,12.00
2022-10-05T23:21:26.681Z,12.10
2022-10-05T23:23:54.693Z,12.30
2022-10-05T23:26:25.572Z,12.10
2022-10-05T23:28:53.519Z,12.10
2022-10-05T23:31:23.047Z,12.00
2022-10-05T23:33:51.247Z,12.10
2022-10-05T23:36:20.903Z,12.20
2022-10-05T23:38:48.821Z,12.20
2022-10-05T23:41:17.739Z,12.10
2022-10-05T23:43:47.683Z,11.90
2022-10-05T23:46:16.096Z,11.90
2022-10-05T23:48:44.241Z,11.90
2022-10-05T23:51:15.499Z,11.90
2022-10-05T23:53:44.464Z,12.00
2022-10-05T23:56:13.335Z,12.30
2022-10-05T23:58:41.474Z,12.60
